sensor_id;sensor_type;location;lat;lon;timestamp;P1;durP1;ratioP1;P2;durP2;ratioP2
19219;SDS011;9744;49.364;7.484;2022-08-19T00:02:00;18.15;;;16.25;;
19219;SDS011;9744;49.364;7.484;2022-08-19T00:04:29;17.70;;;15.98;;
19219;SDS011;9744;49.364;7.484;2022-08-19T00:07:00;17.17;;;15.38;;
19219;SDS011;9744;49.364;7.484;2022-08-19T00:09:28;18.75;;;15.93;;
19219;SDS011;9744;49.364;7.484;2022-08-19T00:11:56;18.23;;;16.40;;
19219;SDS011;9744;49.364;7.484;2022-08-19T00:14:24;22.20;;;16.40;;
19219;SDS011;9744;49.364;7.484;2022-08-19T00:16:52;18.05;;;16.15;;
19219;SDS011;9744;49.364;7.484;2022-08-19T00:19:22;19.50;;;16.75;;
19219;SDS011;9744;49.364;7.484;2022-08-19T00:21:50;17.73;;;15.82;;
19219;SDS011;9744;49.364;7.484;2022-08-19T00:24:18;17.13;;;15.02;;
19219;SDS011;9744;49.364;7.484;2022-08-19T00:26:46;17.35;;;15.48;;
19219;SDS011;9744;49.364;7.484;2022-08-19T00:29:14;21.98;;;16.95;;
19219;SDS011;9744;49.364;7.484;2022-08-19T00:31:42;18.10;;;14.68;;
19219;SDS011;9744;49.364;7.484;2022-08-19T00:34:10;17.73;;;14.63;;
19219;SDS011;9744;49.364;7.484;2022-08-19T00:36:39;16.40;;;14.48;;
19219;SDS011;9744;49.364;7.484;2022-08-19T00:39:07;17.80;;;15.85;;
19219;SDS011;9744;49.364;7.484;2022-08-19T00:41:34;19.85;;;16.80;;
19219;SDS011;9744;49.364;7.484;2022-08-19T00:44:03;18.10;;;15.65;;
19219;SDS011;9744;49.364;7.484;2022-08-19T00:46:33;18.67;;;16.67;;
19219;SDS011;9744;49.364;7.484;2022-08-19T00:49:02;16.30;;;14.60;;
19219;SDS011;9744;49.364;7.484;2022-08-19T00:51:36;14.25;;;12.82;;
19219;SDS011;9744;49.364;7.484;2022-08-19T00:54:05;19.65;;;14.05;;
19219;SDS011;9744;49.364;7.484;2022-08-19T00:56:32;14.68;;;12.85;;
19219;SDS011;9744;49.364;7.484;2022-08-19T00:59:00;17.38;;;13.38;;
19219;SDS011;9744;49.364;7.484;2022-08-19T01:01:34;18.98;;;14.45;;
19219;SDS011;9744;49.364;7.484;2022-08-19T01:04:02;15.85;;;13.45;;
19219;SDS011;9744;49.364;7.484;2022-08-19T01:06:29;18.20;;;12.98;;
19219;SDS011;9744;49.364;7.484;2022-08-19T01:08:58;16.15;;;12.68;;
19219;SDS011;9744;49.364;7.484;2022-08-19T01:11:27;14.00;;;12.60;;
19219;SDS011;9744;49.364;7.484;2022-08-19T01:13:56;15.23;;;12.88;;
19219;SDS011;9744;49.364;7.484;2022-08-19T01:16:25;16.15;;;14.40;;
19219;SDS011;9744;49.364;7.484;2022-08-19T01:18:54;17.85;;;13.02;;
19219;SDS011;9744;49.364;7.484;2022-08-19T01:21:34;19.15;;;13.45;;
19219;SDS011;9744;49.364;7.484;2022-08-19T01:24:07;18.08;;;15.07;;
19219;SDS011;9744;49.364;7.484;2022-08-19T01:26:37;17.73;;;14.00;;
19219;SDS011;9744;49.364;7.484;2022-08-19T01:29:09;15.38;;;13.30;;
19219;SDS011;9744;49.364;7.484;2022-08-19T01:31:38;15.73;;;13.98;;
19219;SDS011;9744;49.364;7.484;2022-08-19T01:34:06;19.02;;;15.52;;
19219;SDS011;9744;49.364;7.484;2022-08-19T01:36:35;14.15;;;12.32;;
19219;SDS011;9744;49.364;7.484;2022-08-19T01:39:09;14.57;;;12.65;;
19219;SDS011;9744;49.364;7.484;2022-08-19T01:41:39;14.65;;;12.98;;
19219;SDS011;9744;49.364;7.484;2022-08-19T01:44:07;17.35;;;13.50;;
19219;SDS011;9744;49.364;7.484;2022-08-19T01:46:35;13.60;;;12.10;;
19219;SDS011;9744;49.364;7.484;2022-08-19T01:49:04;14.00;;;12.00;;
19219;SDS011;9744;49.364;7.484;2022-08-19T01:51:33;14.93;;;12.73;;
19219;SDS011;9744;49.364;7.484;2022-08-19T01:54:00;14.48;;;11.85;;
19219;SDS011;9744;49.364;7.484;2022-08-19T01:56:29;13.48;;;10.95;;
19219;SDS011;9744;49.364;7.484;2022-08-19T01:58:57;12.20;;;10.90;;
19219;SDS011;9744;49.364;7.484;2022-08-19T02:01:28;16.83;;;12.15;;
19219;SDS011;9744;49.364;7.484;2022-08-19T02:03:58;11.80;;;10.57;;
19219;SDS011;9744;49.364;7.484;2022-08-19T02:06:25;14.98;;;10.98;;
19219;SDS011;9744;49.364;7.484;2022-08-19T02:08:53;14.35;;;11.18;;
19219;SDS011;9744;49.364;7.484;2022-08-19T02:11:22;12.25;;;10.82;;
19219;SDS011;9744;49.364;7.484;2022-08-19T02:13:53;11.60;;;10.48;;
19219;SDS011;9744;49.364;7.484;2022-08-19T02:16:21;11.55;;;10.43;;
19219;SDS011;9744;49.364;7.484;2022-08-19T02:18:48;13.88;;;12.07;;
19219;SDS011;9744;49.364;7.484;2022-08-19T02:21:16;14.50;;;10.85;;
19219;SDS011;9744;49.364;7.484;2022-08-19T02:23:46;12.73;;;10.90;;
19219;SDS011;9744;49.364;7.484;2022-08-19T02:26:14;14.70;;;11.02;;
19219;SDS011;9744;49.364;7.484;2022-08-19T02:28:44;11.57;;;10.43;;
19219;SDS011;9744;49.364;7.484;2022-08-19T02:31:14;19.75;;;14.15;;
19219;SDS011;9744;49.364;7.484;2022-08-19T02:33:43;12.93;;;11.30;;
19219;SDS011;9744;49.364;7.484;2022-08-19T02:36:11;12.90;;;10.68;;
19219;SDS011;9744;49.364;7.484;2022-08-19T02:38:40;11.38;;;10.20;;
19219;SDS011;9744;49.364;7.484;2022-08-19T02:41:11;12.25;;;10.20;;
19219;SDS011;9744;49.364;7.484;2022-08-19T02:43:41;12.40;;;11.18;;
19219;SDS011;9744;49.364;7.484;2022-08-19T02:46:14;11.90;;;9.70;;
19219;SDS011;9744;49.364;7.484;2022-08-19T02:48:46;10.27;;;9.27;;
19219;SDS011;9744;49.364;7.484;2022-08-19T02:51:15;10.55;;;9.55;;
19219;SDS011;9744;49.364;7.484;2022-08-19T02:53:44;12.95;;;10.43;;
19219;SDS011;9744;49.364;7.484;2022-08-19T02:56:11;12.20;;;10.85;;
19219;SDS011;9744;49.364;7.484;2022-08-19T02:58:44;13.90;;;10.93;;
19219;SDS011;9744;49.364;7.484;2022-08-19T03:01:20;10.85;;;9.43;;
19219;SDS011;9744;49.364;7.484;2022-08-19T03:03:49;10.82;;;9.73;;
19219;SDS011;9744;49.364;7.484;2022-08-19T03:06:17;14.07;;;9.93;;
19219;SDS011;9744;49.364;7.484;2022-08-19T03:08:46;10.05;;;9.13;;
19219;SDS011;9744;49.364;7.484;2022-08-19T03:11:15;10.07;;;9.07;;
19219;SDS011;9744;49.364;7.484;2022-08-19T03:13:46;10.45;;;9.23;;
19219;SDS011;9744;49.364;7.484;2022-08-19T03:16:16;10.73;;;9.40;;
19219;SDS011;9744;49.364;7.484;2022-08-19T03:18:46;10.68;;;9.57;;
19219;SDS011;9744;49.364;7.484;2022-08-19T03:21:14;11.23;;;9.90;;
19219;SDS011;9744;49.364;7.484;2022-08-19T03:23:43;9.98;;;8.95;;
19219;SDS011;9744;49.364;7.484;2022-08-19T03:26:10;14.98;;;10.80;;
19219;SDS011;9744;49.364;7.484;2022-08-19T03:28:40;10.90;;;9.82;;
19219;SDS011;9744;49.364;7.484;2022-08-19T03:31:09;11.90;;;10.45;;
19219;SDS011;9744;49.364;7.484;2022-08-19T03:33:38;16.17;;;11.18;;
19219;SDS011;9744;49.364;7.484;2022-08-19T03:36:08;11.65;;;10.45;;
19219;SDS011;9744;49.364;7.484;2022-08-19T03:38:39;14.95;;;10.55;;
19219;SDS011;9744;49.364;7.484;2022-08-19T03:41:11;12.80;;;10.50;;
19219;SDS011;9744;49.364;7.484;2022-08-19T03:43:41;14.35;;;11.68;;
19219;SDS011;9744;49.364;7.484;2022-08-19T03:46:12;15.07;;;10.85;;
19219;SDS011;9744;49.364;7.484;2022-08-19T03:48:41;13.10;;;11.13;;
19219;SDS011;9744;49.364;7.484;2022-08-19T03:51:16;13.05;;;11.75;;
19219;SDS011;9744;49.364;7.484;2022-08-19T03:53:45;14.80;;;11.82;;
19219;SDS011;9744;49.364;7.484;2022-08-19T03:56:13;13.18;;;11.88;;
19219;SDS011;9744;49.364;7.484;2022-08-19T03:58:42;14.48;;;12.88;;
19219;SDS011;9744;49.364;7.484;2022-08-19T04:01:12;17.98;;;13.63;;
19219;SDS011;9744;49.364;7.484;2022-08-19T04:03:41;15.32;;;13.70;;
19219;SDS011;9744;49.364;7.484;2022-08-19T04:06:09;15.43;;;12.57;;
19219;SDS011;9744;49.364;7.484;2022-08-19T04:08:39;17.10;;;13.35;;
19219;SDS011;9744;49.364;7.484;2022-08-19T04:11:08;15.55;;;12.90;;
19219;SDS011;9744;49.364;7.484;2022-08-19T04:13:35;14.50;;;12.40;;
19219;SDS011;9744;49.364;7.484;2022-08-19T04:16:03;12.45;;;11.10;;
19219;SDS011;9744;49.364;7.484;2022-08-19T04:18:31;15.93;;;13.88;;
19219;SDS011;9744;49.364;7.484;2022-08-19T04:20:59;13.70;;;11.02;;
19219;SDS011;9744;49.364;7.484;2022-08-19T04:23:27;12.63;;;10.75;;
19219;SDS011;9744;49.364;7.484;2022-08-19T04:25:57;13.50;;;11.48;;
19219;SDS011;9744;49.364;7.484;2022-08-19T04:28:24;11.95;;;10.80;;
19219;SDS011;9744;49.364;7.484;2022-08-19T04:30:53;12.90;;;11.25;;
19219;SDS011;9744;49.364;7.484;2022-08-19T04:33:22;13.18;;;11.23;;
19219;SDS011;9744;49.364;7.484;2022-08-19T04:35:51;13.50;;;11.70;;
19219;SDS011;9744;49.364;7.484;2022-08-19T04:38:19;15.60;;;13.20;;
19219;SDS011;9744;49.364;7.484;2022-08-19T04:40:49;15.68;;;12.85;;
19219;SDS011;9744;49.364;7.484;2022-08-19T04:43:37;16.77;;;12.68;;
19219;SDS011;9744;49.364;7.484;2022-08-19T04:46:06;13.93;;;12.48;;
19219;SDS011;9744;49.364;7.484;2022-08-19T04:48:34;15.00;;;11.65;;
19219;SDS011;9744;49.364;7.484;2022-08-19T04:51:05;15.85;;;11.85;;
19219;SDS011;9744;49.364;7.484;2022-08-19T04:53:35;13.98;;;11.38;;
19219;SDS011;9744;49.364;7.484;2022-08-19T04:56:04;13.02;;;10.45;;
19219;SDS011;9744;49.364;7.484;2022-08-19T04:58:39;12.30;;;10.02;;
19219;SDS011;9744;49.364;7.484;2022-08-19T05:01:08;12.10;;;10.55;;
19219;SDS011;9744;49.364;7.484;2022-08-19T05:03:36;13.77;;;10.85;;
19219;SDS011;9744;49.364;7.484;2022-08-19T05:06:04;13.25;;;11.70;;
19219;SDS011;9744;49.364;7.484;2022-08-19T05:08:36;14.52;;;11.40;;
19219;SDS011;9744;49.364;7.484;2022-08-19T05:11:07;15.63;;;11.70;;
19219;SDS011;9744;49.364;7.484;2022-08-19T05:13:36;13.60;;;11.18;;
19219;SDS011;9744;49.364;7.484;2022-08-19T05:16:06;16.70;;;12.25;;
19219;SDS011;9744;49.364;7.484;2022-08-19T05:18:33;15.07;;;11.45;;
19219;SDS011;9744;49.364;7.484;2022-08-19T05:21:18;11.82;;;10.15;;
19219;SDS011;9744;49.364;7.484;2022-08-19T05:24:07;14.70;;;11.60;;
19219;SDS011;9744;49.364;7.484;2022-08-19T05:26:35;15.25;;;11.38;;
19219;SDS011;9744;49.364;7.484;2022-08-19T05:29:04;12.82;;;10.43;;
19219;SDS011;9744;49.364;7.484;2022-08-19T05:31:34;14.25;;;11.05;;
19219;SDS011;9744;49.364;7.484;2022-08-19T05:34:02;12.40;;;11.05;;
19219;SDS011;9744;49.364;7.484;2022-08-19T05:36:33;15.27;;;11.38;;
19219;SDS011;9744;49.364;7.484;2022-08-19T05:39:05;13.25;;;11.15;;
19219;SDS011;9744;49.364;7.484;2022-08-19T05:41:32;12.63;;;9.98;;
19219;SDS011;9744;49.364;7.484;2022-08-19T05:44:05;13.90;;;11.43;;
19219;SDS011;9744;49.364;7.484;2022-08-19T05:46:34;11.23;;;9.77;;
19219;SDS011;9744;49.364;7.484;2022-08-19T05:49:03;11.18;;;9.45;;
19219;SDS011;9744;49.364;7.484;2022-08-19T05:51:31;11.15;;;9.75;;
19219;SDS011;9744;49.364;7.484;2022-08-19T05:53:59;10.30;;;8.95;;
19219;SDS011;9744;49.364;7.484;2022-08-19T05:56:27;11.48;;;8.60;;
19219;SDS011;9744;49.364;7.484;2022-08-19T05:58:58;10.55;;;8.15;;
19219;SDS011;9744;49.364;7.484;2022-08-19T06:01:27;10.20;;;8.73;;
19219;SDS011;9744;49.364;7.484;2022-08-19T06:03:57;9.50;;;8.25;;
19219;SDS011;9744;49.364;7.484;2022-08-19T06:06:25;9.75;;;7.80;;
19219;SDS011;9744;49.364;7.484;2022-08-19T06:08:53;12.23;;;7.95;;
19219;SDS011;9744;49.364;7.484;2022-08-19T06:11:32;14.55;;;11.35;;
19219;SDS011;9744;49.364;7.484;2022-08-19T06:14:02;7.95;;;7.05;;
19219;SDS011;9744;49.364;7.484;2022-08-19T06:16:34;10.35;;;8.25;;
19219;SDS011;9744;49.364;7.484;2022-08-19T06:19:05;10.18;;;8.25;;
19219;SDS011;9744;49.364;7.484;2022-08-19T06:21:35;9.15;;;7.72;;
19219;SDS011;9744;49.364;7.484;2022-08-19T06:24:07;10.40;;;7.65;;
19219;SDS011;9744;49.364;7.484;2022-08-19T06:26:37;8.18;;;7.18;;
19219;SDS011;9744;49.364;7.484;2022-08-19T06:29:06;12.68;;;8.65;;
19219;SDS011;9744;49.364;7.484;2022-08-19T06:31:35;9.98;;;7.25;;
19219;SDS011;9744;49.364;7.484;2022-08-19T06:34:04;7.80;;;7.00;;
19219;SDS011;9744;49.364;7.484;2022-08-19T06:36:33;7.45;;;6.57;;
19219;SDS011;9744;49.364;7.484;2022-08-19T06:39:10;8.85;;;7.60;;
19219;SDS011;9744;49.364;7.484;2022-08-19T06:41:44;9.98;;;7.22;;
19219;SDS011;9744;49.364;7.484;2022-08-19T06:44:29;9.20;;;6.90;;
19219;SDS011;9744;49.364;7.484;2022-08-19T06:47:03;11.20;;;7.47;;
19219;SDS011;9744;49.364;7.484;2022-08-19T06:49:32;10.30;;;7.32;;
19219;SDS011;9744;49.364;7.484;2022-08-19T06:52:03;9.27;;;7.65;;
19219;SDS011;9744;49.364;7.484;2022-08-19T06:54:37;7.40;;;6.68;;
19219;SDS011;9744;49.364;7.484;2022-08-19T06:57:06;11.00;;;7.53;;
19219;SDS011;9744;49.364;7.484;2022-08-19T06:59:40;10.85;;;6.80;;
19219;SDS011;9744;49.364;7.484;2022-08-19T07:02:09;10.52;;;7.20;;
19219;SDS011;9744;49.364;7.484;2022-08-19T07:04:51;9.18;;;6.53;;
19219;SDS011;9744;49.364;7.484;2022-08-19T07:08:08;11.02;;;7.95;;
19219;SDS011;9744;49.364;7.484;2022-08-19T07:10:37;9.93;;;6.65;;
19219;SDS011;9744;49.364;7.484;2022-08-19T07:13:08;13.63;;;7.57;;
19219;SDS011;9744;49.364;7.484;2022-08-19T07:15:36;15.80;;;9.63;;
19219;SDS011;9744;49.364;7.484;2022-08-19T07:18:05;13.68;;;8.40;;
19219;SDS011;9744;49.364;7.484;2022-08-19T07:20:37;9.60;;;7.80;;
19219;SDS011;9744;49.364;7.484;2022-08-19T07:23:04;8.65;;;7.75;;
19219;SDS011;9744;49.364;7.484;2022-08-19T07:25:35;13.40;;;9.23;;
19219;SDS011;9744;49.364;7.484;2022-08-19T07:28:21;7.70;;;6.75;;
19219;SDS011;9744;49.364;7.484;2022-08-19T07:30:58;10.05;;;8.10;;
19219;SDS011;9744;49.364;7.484;2022-08-19T07:33:35;9.15;;;7.82;;
19219;SDS011;9744;49.364;7.484;2022-08-19T07:36:04;16.98;;;13.65;;
19219;SDS011;9744;49.364;7.484;2022-08-19T07:38:38;12.60;;;8.38;;
19219;SDS011;9744;49.364;7.484;2022-08-19T07:41:11;11.30;;;8.75;;
19219;SDS011;9744;49.364;7.484;2022-08-19T07:43:42;11.85;;;8.27;;
19219;SDS011;9744;49.364;7.484;2022-08-19T07:46:10;10.23;;;7.82;;
19219;SDS011;9744;49.364;7.484;2022-08-19T07:48:42;19.05;;;12.48;;
19219;SDS011;9744;49.364;7.484;2022-08-19T07:51:21;12.50;;;10.48;;
19219;SDS011;9744;49.364;7.484;2022-08-19T07:53:48;11.25;;;8.20;;
19219;SDS011;9744;49.364;7.484;2022-08-19T07:56:23;10.45;;;9.10;;
19219;SDS011;9744;49.364;7.484;2022-08-19T07:58:51;10.20;;;8.65;;
19219;SDS011;9744;49.364;7.484;2022-08-19T08:01:20;14.23;;;12.10;;
19219;SDS011;9744;49.364;7.484;2022-08-19T08:03:52;16.75;;;12.38;;
19219;SDS011;9744;49.364;7.484;2022-08-19T08:06:41;10.95;;;9.25;;
19219;SDS011;9744;49.364;7.484;2022-08-19T08:09:38;11.90;;;9.57;;
19219;SDS011;9744;49.364;7.484;2022-08-19T08:12:10;17.23;;;10.77;;
19219;SDS011;9744;49.364;7.484;2022-08-19T08:14:41;16.30;;;11.02;;
19219;SDS011;9744;49.364;7.484;2022-08-19T08:17:22;15.90;;;10.45;;
19219;SDS011;9744;49.364;7.484;2022-08-19T08:20:14;13.00;;;10.90;;
19219;SDS011;9744;49.364;7.484;2022-08-19T08:22:48;14.02;;;8.60;;
19219;SDS011;9744;49.364;7.484;2022-08-19T08:25:36;10.38;;;8.30;;
19219;SDS011;9744;49.364;7.484;2022-08-19T08:28:15;14.13;;;10.25;;
19219;SDS011;9744;49.364;7.484;2022-08-19T08:30:43;12.05;;;9.60;;
19219;SDS011;9744;49.364;7.484;2022-08-19T08:33:23;8.85;;;7.95;;
19219;SDS011;9744;49.364;7.484;2022-08-19T08:35:53;11.18;;;7.80;;
19219;SDS011;9744;49.364;7.484;2022-08-19T08:38:22;9.07;;;7.68;;
19219;SDS011;9744;49.364;7.484;2022-08-19T08:40:50;12.80;;;8.32;;
19219;SDS011;9744;49.364;7.484;2022-08-19T08:43:32;11.40;;;9.90;;
19219;SDS011;9744;49.364;7.484;2022-08-19T08:46:03;9.05;;;6.72;;
19219;SDS011;9744;49.364;7.484;2022-08-19T08:48:35;11.40;;;8.68;;
19219;SDS011;9744;49.364;7.484;2022-08-19T08:51:12;11.98;;;7.88;;
19219;SDS011;9744;49.364;7.484;2022-08-19T08:53:41;11.45;;;9.45;;
19219;SDS011;9744;49.364;7.484;2022-08-19T08:56:16;13.75;;;10.93;;
19219;SDS011;9744;49.364;7.484;2022-08-19T08:58:46;12.15;;;6.07;;
19219;SDS011;9744;49.364;7.484;2022-08-19T09:01:20;11.25;;;9.18;;
19219;SDS011;9744;49.364;7.484;2022-08-19T09:03:53;13.55;;;9.18;;
19219;SDS011;9744;49.364;7.484;2022-08-19T09:09:02;8.93;;;6.20;;
19219;SDS011;9744;49.364;7.484;2022-08-19T09:11:39;6.25;;;5.60;;
19219;SDS011;9744;49.364;7.484;2022-08-19T09:14:31;7.57;;;6.38;;
19219;SDS011;9744;49.364;7.484;2022-08-19T09:17:07;7.60;;;4.85;;
19219;SDS011;9744;49.364;7.484;2022-08-19T09:19:35;9.98;;;5.47;;
19219;SDS011;9744;49.364;7.484;2022-08-19T09:22:14;4.10;;;3.70;;
19219;SDS011;9744;49.364;7.484;2022-08-19T09:24:41;4.50;;;3.88;;
19219;SDS011;9744;49.364;7.484;2022-08-19T09:27:08;5.13;;;3.67;;
19219;SDS011;9744;49.364;7.484;2022-08-19T09:29:36;5.28;;;3.80;;
19219;SDS011;9744;49.364;7.484;2022-08-19T09:32:03;5.10;;;4.30;;
19219;SDS011;9744;49.364;7.484;2022-08-19T09:34:31;4.38;;;3.97;;
19219;SDS011;9744;49.364;7.484;2022-08-19T09:36:58;4.97;;;4.40;;
19219;SDS011;9744;49.364;7.484;2022-08-19T09:39:28;8.02;;;5.00;;
19219;SDS011;9744;49.364;7.484;2022-08-19T09:41:56;4.13;;;3.83;;
19219;SDS011;9744;49.364;7.484;2022-08-19T09:44:23;9.18;;;5.03;;
19219;SDS011;9744;49.364;7.484;2022-08-19T09:46:50;5.50;;;3.88;;
19219;SDS011;9744;49.364;7.484;2022-08-19T09:49:18;4.70;;;4.22;;
19219;SDS011;9744;49.364;7.484;2022-08-19T09:51:48;5.38;;;3.80;;
19219;SDS011;9744;49.364;7.484;2022-08-19T09:54:16;6.00;;;4.15;;
19219;SDS011;9744;49.364;7.484;2022-08-19T09:56:45;4.47;;;3.80;;
19219;SDS011;9744;49.364;7.484;2022-08-19T09:59:12;3.55;;;3.22;;
19219;SDS011;9744;49.364;7.484;2022-08-19T10:01:39;4.60;;;3.90;;
19219;SDS011;9744;49.364;7.484;2022-08-19T10:04:06;4.22;;;2.88;;
19219;SDS011;9744;49.364;7.484;2022-08-19T10:06:36;3.45;;;3.15;;
19219;SDS011;9744;49.364;7.484;2022-08-19T10:09:08;2.95;;;2.67;;
19219;SDS011;9744;49.364;7.484;2022-08-19T10:11:38;3.13;;;2.78;;
19219;SDS011;9744;49.364;7.484;2022-08-19T10:14:08;5.00;;;2.70;;
19219;SDS011;9744;49.364;7.484;2022-08-19T10:16:35;3.20;;;2.83;;
19219;SDS011;9744;49.364;7.484;2022-08-19T10:19:04;3.28;;;2.63;;
19219;SDS011;9744;49.364;7.484;2022-08-19T10:21:32;3.63;;;2.72;;
19219;SDS011;9744;49.364;7.484;2022-08-19T10:24:01;3.10;;;2.70;;
19219;SDS011;9744;49.364;7.484;2022-08-19T10:26:39;3.08;;;2.88;;
19219;SDS011;9744;49.364;7.484;2022-08-19T10:29:11;9.23;;;2.90;;
19219;SDS011;9744;49.364;7.484;2022-08-19T10:31:41;5.95;;;3.00;;
19219;SDS011;9744;49.364;7.484;2022-08-19T10:34:08;4.10;;;3.10;;
19219;SDS011;9744;49.364;7.484;2022-08-19T10:36:36;5.05;;;2.67;;
19219;SDS011;9744;49.364;7.484;2022-08-19T10:39:04;3.83;;;2.83;;
19219;SDS011;9744;49.364;7.484;2022-08-19T10:41:34;6.00;;;2.72;;
19219;SDS011;9744;49.364;7.484;2022-08-19T10:44:04;2.70;;;2.35;;
19219;SDS011;9744;49.364;7.484;2022-08-19T10:46:36;5.22;;;2.58;;
19219;SDS011;9744;49.364;7.484;2022-08-19T10:49:07;3.90;;;2.60;;
19219;SDS011;9744;49.364;7.484;2022-08-19T10:51:36;2.60;;;2.38;;
19219;SDS011;9744;49.364;7.484;2022-08-19T10:54:22;3.40;;;2.60;;
19219;SDS011;9744;49.364;7.484;2022-08-19T10:57:09;2.58;;;2.38;;
19219;SDS011;9744;49.364;7.484;2022-08-19T10:59:36;5.90;;;2.75;;
19219;SDS011;9744;49.364;7.484;2022-08-19T11:02:06;4.32;;;2.67;;
19219;SDS011;9744;49.364;7.484;2022-08-19T11:04:36;4.05;;;3.30;;
19219;SDS011;9744;49.364;7.484;2022-08-19T11:07:03;5.15;;;4.03;;
19219;SDS011;9744;49.364;7.484;2022-08-19T11:09:31;3.03;;;2.78;;
19219;SDS011;9744;49.364;7.484;2022-08-19T11:12:04;4.55;;;2.65;;
19219;SDS011;9744;49.364;7.484;2022-08-19T11:14:33;2.83;;;2.63;;
19219;SDS011;9744;49.364;7.484;2022-08-19T11:17:00;3.20;;;2.90;;
19219;SDS011;9744;49.364;7.484;2022-08-19T11:19:30;7.53;;;2.88;;
19219;SDS011;9744;49.364;7.484;2022-08-19T11:21:58;7.60;;;3.97;;
19219;SDS011;9744;49.364;7.484;2022-08-19T11:24:28;3.10;;;2.90;;
19219;SDS011;9744;49.364;7.484;2022-08-19T11:27:00;5.93;;;3.20;;
19219;SDS011;9744;49.364;7.484;2022-08-19T11:29:30;3.80;;;2.85;;
19219;SDS011;9744;49.364;7.484;2022-08-19T11:31:59;3.65;;;2.63;;
19219;SDS011;9744;49.364;7.484;2022-08-19T11:34:31;3.47;;;2.85;;
19219;SDS011;9744;49.364;7.484;2022-08-19T11:37:00;4.15;;;2.67;;
19219;SDS011;9744;49.364;7.484;2022-08-19T11:39:29;3.63;;;3.17;;
19219;SDS011;9744;49.364;7.484;2022-08-19T11:41:58;2.63;;;2.42;;
19219;SDS011;9744;49.364;7.484;2022-08-19T11:44:26;5.82;;;2.22;;
19219;SDS011;9744;49.364;7.484;2022-08-19T11:46:55;2.70;;;2.50;;
19219;SDS011;9744;49.364;7.484;2022-08-19T11:49:22;2.88;;;2.58;;
19219;SDS011;9744;49.364;7.484;2022-08-19T11:51:51;4.45;;;2.90;;
19219;SDS011;9744;49.364;7.484;2022-08-19T11:54:19;4.15;;;2.97;;
19219;SDS011;9744;49.364;7.484;2022-08-19T11:56:46;6.10;;;2.50;;
19219;SDS011;9744;49.364;7.484;2022-08-19T11:59:14;4.88;;;2.35;;
19219;SDS011;9744;49.364;7.484;2022-08-19T12:01:41;4.22;;;2.40;;
19219;SDS011;9744;49.364;7.484;2022-08-19T12:04:09;3.15;;;2.85;;
19219;SDS011;9744;49.364;7.484;2022-08-19T12:06:37;2.85;;;2.58;;
19219;SDS011;9744;49.364;7.484;2022-08-19T12:09:08;3.47;;;2.30;;
19219;SDS011;9744;49.364;7.484;2022-08-19T12:11:36;5.68;;;2.75;;
19219;SDS011;9744;49.364;7.484;2022-08-19T12:14:04;3.00;;;2.40;;
19219;SDS011;9744;49.364;7.484;2022-08-19T12:16:31;3.45;;;2.95;;
19219;SDS011;9744;49.364;7.484;2022-08-19T12:18:59;4.78;;;2.40;;
19219;SDS011;9744;49.364;7.484;2022-08-19T12:21:30;4.38;;;2.50;;
19219;SDS011;9744;49.364;7.484;2022-08-19T12:23:59;2.63;;;2.42;;
19219;SDS011;9744;49.364;7.484;2022-08-19T12:26:30;2.50;;;2.30;;
19219;SDS011;9744;49.364;7.484;2022-08-19T12:28:58;3.97;;;2.30;;
19219;SDS011;9744;49.364;7.484;2022-08-19T12:31:26;3.00;;;2.00;;
19219;SDS011;9744;49.364;7.484;2022-08-19T12:33:53;4.63;;;3.03;;
19219;SDS011;9744;49.364;7.484;2022-08-19T12:36:21;2.85;;;2.38;;
19219;SDS011;9744;49.364;7.484;2022-08-19T12:38:50;4.28;;;2.50;;
19219;SDS011;9744;49.364;7.484;2022-08-19T12:41:19;2.40;;;2.20;;
19219;SDS011;9744;49.364;7.484;2022-08-19T12:43:49;2.45;;;2.25;;
19219;SDS011;9744;49.364;7.484;2022-08-19T12:46:17;2.67;;;2.47;;
19219;SDS011;9744;49.364;7.484;2022-08-19T12:48:45;3.20;;;2.38;;
19219;SDS011;9744;49.364;7.484;2022-08-19T12:51:14;2.78;;;2.50;;
19219;SDS011;9744;49.364;7.484;2022-08-19T12:53:44;4.28;;;2.50;;
19219;SDS011;9744;49.364;7.484;2022-08-19T12:56:12;3.17;;;2.58;;
19219;SDS011;9744;49.364;7.484;2022-08-19T12:58:41;2.15;;;2.05;;
19219;SDS011;9744;49.364;7.484;2022-08-19T13:01:12;2.95;;;2.25;;
19219;SDS011;9744;49.364;7.484;2022-08-19T13:03:41;5.03;;;2.28;;
19219;SDS011;9744;49.364;7.484;2022-08-19T13:06:11;2.83;;;2.22;;
19219;SDS011;9744;49.364;7.484;2022-08-19T13:08:39;2.45;;;1.77;;
19219;SDS011;9744;49.364;7.484;2022-08-19T13:11:07;3.15;;;2.00;;
19219;SDS011;9744;49.364;7.484;2022-08-19T13:13:37;2.25;;;1.88;;
19219;SDS011;9744;49.364;7.484;2022-08-19T13:16:06;2.35;;;2.15;;
19219;SDS011;9744;49.364;7.484;2022-08-19T13:18:36;2.25;;;2.05;;
19219;SDS011;9744;49.364;7.484;2022-08-19T13:21:05;2.00;;;1.90;;
19219;SDS011;9744;49.364;7.484;2022-08-19T13:26:06;2.83;;;2.00;;
19219;SDS011;9744;49.364;7.484;2022-08-19T13:28:34;5.18;;;2.42;;
19219;SDS011;9744;49.364;7.484;2022-08-19T13:31:20;3.58;;;2.30;;
19219;SDS011;9744;49.364;7.484;2022-08-19T13:34:08;5.13;;;2.90;;
19219;SDS011;9744;49.364;7.484;2022-08-19T13:36:36;3.97;;;2.60;;
19219;SDS011;9744;49.364;7.484;2022-08-19T13:39:05;4.10;;;3.10;;
19219;SDS011;9744;49.364;7.484;2022-08-19T13:41:34;3.47;;;2.88;;
19219;SDS011;9744;49.364;7.484;2022-08-19T13:44:02;4.10;;;2.88;;
19219;SDS011;9744;49.364;7.484;2022-08-19T13:46:29;4.22;;;2.83;;
19219;SDS011;9744;49.364;7.484;2022-08-19T13:48:57;2.80;;;2.60;;
19219;SDS011;9744;49.364;7.484;2022-08-19T13:51:26;3.85;;;3.40;;
19219;SDS011;9744;49.364;7.484;2022-08-19T13:53:53;3.63;;;3.22;;
19219;SDS011;9744;49.364;7.484;2022-08-19T13:56:20;4.82;;;3.47;;
19219;SDS011;9744;49.364;7.484;2022-08-19T13:58:48;4.18;;;3.72;;
19219;SDS011;9744;49.364;7.484;2022-08-19T14:01:18;5.07;;;3.28;;
19219;SDS011;9744;49.364;7.484;2022-08-19T14:03:46;5.80;;;3.95;;
19219;SDS011;9744;49.364;7.484;2022-08-19T14:06:14;4.43;;;4.03;;
19219;SDS011;9744;49.364;7.484;2022-08-19T14:08:43;4.25;;;3.55;;
19219;SDS011;9744;49.364;7.484;2022-08-19T14:11:10;7.10;;;3.40;;
19219;SDS011;9744;49.364;7.484;2022-08-19T14:13:38;4.40;;;3.67;;
19219;SDS011;9744;49.364;7.484;2022-08-19T14:16:06;3.92;;;3.60;;
19219;SDS011;9744;49.364;7.484;2022-08-19T14:18:35;6.15;;;3.70;;
19219;SDS011;9744;49.364;7.484;2022-08-19T14:21:03;5.95;;;4.13;;
19219;SDS011;9744;49.364;7.484;2022-08-19T14:23:30;6.20;;;3.85;;
19219;SDS011;9744;49.364;7.484;2022-08-19T14:26:07;5.18;;;4.28;;
19219;SDS011;9744;49.364;7.484;2022-08-19T14:28:35;7.07;;;4.00;;
19219;SDS011;9744;49.364;7.484;2022-08-19T14:31:02;8.57;;;4.53;;
19219;SDS011;9744;49.364;7.484;2022-08-19T14:33:30;5.90;;;4.85;;
19219;SDS011;9744;49.364;7.484;2022-08-19T14:35:57;9.15;;;4.18;;
19219;SDS011;9744;49.364;7.484;2022-08-19T14:38:25;7.30;;;5.13;;
19219;SDS011;9744;49.364;7.484;2022-08-19T14:41:06;5.32;;;4.80;;
19219;SDS011;9744;49.364;7.484;2022-08-19T14:43:39;5.18;;;4.60;;
19219;SDS011;9744;49.364;7.484;2022-08-19T14:46:07;5.43;;;4.85;;
19219;SDS011;9744;49.364;7.484;2022-08-19T14:48:35;5.68;;;5.00;;
19219;SDS011;9744;49.364;7.484;2022-08-19T14:51:04;4.13;;;3.63;;
19219;SDS011;9744;49.364;7.484;2022-08-19T14:53:33;5.05;;;3.67;;
19219;SDS011;9744;49.364;7.484;2022-08-19T14:56:01;9.90;;;3.95;;
19219;SDS011;9744;49.364;7.484;2022-08-19T14:58:34;4.15;;;3.67;;
19219;SDS011;9744;49.364;7.484;2022-08-19T15:01:01;4.65;;;3.40;;
19219;SDS011;9744;49.364;7.484;2022-08-19T15:03:30;4.25;;;3.35;;
19219;SDS011;9744;49.364;7.484;2022-08-19T15:05:58;6.57;;;3.38;;
19219;SDS011;9744;49.364;7.484;2022-08-19T15:08:27;5.82;;;3.08;;
19219;SDS011;9744;49.364;7.484;2022-08-19T15:10:55;3.90;;;3.10;;
19219;SDS011;9744;49.364;7.484;2022-08-19T15:13:24;4.95;;;2.72;;